Time;durP1;ratioP1;P1;durP2;ratioP2;P2;SDS_P1;SDS_P2;PMS_P1;PMS_P2;Temp;Humidity;BMP_temperature;BMP_pressure;BME280_temperature;BME280_humidity;BME280_pressure;Samples;Min_cycle;Max_cycle;Signal;HPM_P1;HPM_P2
2021/08/22 00:01:07;;;;;;;6.20;5.10;;;15.80;99.90;16.00;97084.00;;;;5092477;28;20245;-71
2021/08/22 00:03:56;;;;;;;5.93;5.37;;;15.80;99.90;16.20;97087.00;;;;5105040;28;20202;-70
2021/08/22 00:06:45;;;;;;;6.80;4.97;;;15.90;99.90;16.20;97080.00;;;;5109305;28;20228;-71
2021/08/22 00:09:33;;;;;;;8.07;5.03;;;16.00;99.90;15.80;97093.00;;;;5109071;28;20205;-71
2021/08/22 00:12:24;;;;;;;6.33;5.30;;;16.00;99.90;15.60;97076.00;;;;5087420;28;20245;-71
2021/08/22 00:15:13;;;;;;;7.90;5.27;;;15.90;99.90;15.50;97077.00;;;;5088470;28;20199;-71
2021/08/22 00:18:02;;;;;;;6.30;5.70;;;15.80;99.90;15.40;97089.00;;;;5090026;28;20206;-71
2021/08/22 00:20:51;;;;;;;5.97;5.37;;;15.70;99.90;15.30;97079.00;;;;5089530;28;20735;-71
2021/08/22 00:23:39;;;;;;;7.57;5.23;;;15.60;99.90;15.30;97077.00;;;;5089008;28;20591;-70
2021/08/22 00:26:28;;;;;;;5.63;5.03;;;15.50;99.90;15.50;97078.00;;;;5088260;28;20195;-72
2021/08/22 00:29:19;;;;;;;14.07;5.77;;;15.50;99.90;15.50;97077.00;;;;5088733;28;20203;-71
2021/08/22 00:32:09;;;;;;;9.13;5.20;;;15.50;99.90;15.40;97074.00;;;;5088125;28;20221;-71
2021/08/22 00:34:58;;;;;;;6.33;5.47;;;15.50;99.90;15.50;97080.00;;;;5088251;28;20666;-70
2021/08/22 00:37:47;;;;;;;8.27;5.57;;;15.50;99.90;15.50;97080.00;;;;5087702;28;20195;-71
2021/08/22 00:40:36;;;;;;;7.57;5.33;;;15.50;99.90;15.70;97081.00;;;;5088108;28;20230;-69
2021/08/22 00:43:25;;;;;;;6.20;5.60;;;15.50;99.90;15.80;97080.00;;;;5088203;28;20238;-71
2021/08/22 00:46:15;;;;;;;8.57;5.07;;;15.50;99.90;15.60;97077.00;;;;5101478;28;20210;-71
2021/08/22 00:49:05;;;;;;;6.37;5.50;;;15.60;99.90;15.40;97092.00;;;;5108209;28;20213;-70
2021/08/22 00:51:54;;;;;;;8.30;5.83;;;15.50;99.90;15.40;97085.00;;;;5108319;28;20229;-70
2021/08/22 00:54:43;;;;;;;10.10;5.67;;;15.50;99.90;15.30;97089.00;;;;5107456;28;20202;-71
2021/08/22 00:57:33;;;;;;;5.60;5.10;;;15.40;99.90;15.10;97076.00;;;;5107432;28;20207;-72
2021/08/22 01:00:22;;;;;;;7.53;5.43;;;15.30;99.90;15.20;97086.00;;;;5107950;28;20692;-70
2021/08/22 01:03:19;;;;;;;7.07;5.10;;;15.30;99.90;15.30;97084.00;;;;5109265;28;20191;-70
2021/08/22 01:06:19;;;;;;;5.87;5.27;;;15.30;99.90;15.30;97078.00;;;;5109383;28;20701;-70
2021/08/22 01:09:15;;;;;;;5.53;5.03;;;15.20;99.90;15.00;97078.00;;;;5100180;27;20211;-71
2021/08/22 01:12:12;;;;;;;6.80;5.87;;;15.20;99.90;14.90;97080.00;;;;5084977;28;20219;-71
2021/08/22 01:15:08;;;;;;;6.13;5.00;;;15.10;99.90;14.80;97091.00;;;;5088824;28;20330;-71
2021/08/22 01:17:57;;;;;;;7.60;5.90;;;15.10;99.90;14.90;97081.00;;;;5088345;28;20203;-71
2021/08/22 01:20:56;;;;;;;8.53;6.03;;;15.00;99.90;14.90;97080.00;;;;5084444;28;20223;-71
2021/08/22 01:23:50;;;;;;;6.57;5.07;;;15.00;99.90;15.10;97078.00;;;;5086830;28;20199;-72
2021/08/22 01:26:40;;;;;;;8.17;5.60;;;15.00;99.90;15.10;97081.00;;;;5088365;28;20205;-70
2021/08/22 01:29:36;;;;;;;8.60;5.60;;;15.00;99.90;14.90;97077.00;;;;5087874;28;20195;-71
2021/08/22 01:32:25;;;;;;;8.20;6.20;;;14.90;99.90;14.60;97081.00;;;;5087385;28;20233;-70
2021/08/22 01:35:19;;;;;;;6.10;5.47;;;14.90;99.90;14.60;97084.00;;;;5087007;28;20199;-71
2021/08/22 01:38:09;;;;;;;6.33;5.70;;;14.80;99.90;14.60;97085.00;;;;5087529;28;20202;-71
2021/08/22 01:40:59;;;;;;;6.00;5.43;;;14.80;99.90;14.80;97077.00;;;;5086660;28;20222;-71
2021/08/22 01:43:49;;;;;;;7.63;6.23;;;14.80;99.90;14.80;97072.00;;;;5086632;28;20199;-71
2021/08/22 01:46:39;;;;;;;7.20;5.07;;;14.80;99.90;14.50;97070.00;;;;5087507;28;20196;-72
2021/08/22 01:49:28;;;;;;;8.77;5.73;;;14.80;99.90;14.60;97074.00;;;;5088278;28;20202;-71
2021/08/22 01:52:19;;;;;;;6.77;5.80;;;14.70;99.90;14.80;97065.00;;;;5087382;28;20238;-70
2021/08/22 01:55:10;;;;;;;7.33;5.83;;;14.70;99.90;15.10;97067.00;;;;5086010;28;20195;-72
2021/08/22 01:57:59;;;;;;;10.77;6.03;;;14.80;99.90;15.30;97066.00;;;;5087199;28;20206;-71
2021/08/22 02:00:48;;;;;;;9.67;5.97;;;14.90;99.90;15.00;97066.00;;;;5087168;28;20840;-72
2021/08/22 02:03:44;;;;;;;7.03;5.10;;;14.90;99.90;14.60;97076.00;;;;5087617;28;21005;-71
2021/08/22 02:06:38;;;;;;;8.30;5.57;;;14.80;99.90;14.60;97073.00;;;;5087909;28;20203;-71
2021/08/22 02:09:41;;;;;;;6.33;5.70;;;14.70;99.90;14.60;97071.00;;;;5098149;28;20209;-73
2021/08/22 02:12:30;;;;;;;6.00;5.03;;;14.70;99.90;14.70;97069.00;;;;5105608;28;20226;-69
2021/08/22 02:15:24;;;;;;;5.20;4.70;;;14.60;99.90;14.30;97075.00;;;;5107417;28;20198;-71
2021/08/22 02:18:16;;;;;;;7.07;5.50;;;14.60;99.90;14.40;97089.00;;;;5106943;28;20195;-71
2021/08/22 02:21:06;;;;;;;9.03;6.23;;;14.50;99.90;14.60;97085.00;;;;5107393;28;20240;-70
2021/08/22 02:23:57;;;;;;;6.03;5.43;;;14.60;99.90;14.80;97070.00;;;;5105724;28;20707;-71
2021/08/22 02:26:48;;;;;;;6.37;5.07;;;14.60;99.90;14.90;97069.00;;;;5106089;28;20207;-70
2021/08/22 02:29:47;;;;;;;7.80;5.77;;;14.70;99.90;15.10;97074.00;;;;5106577;28;20210;-71
2021/08/22 02:32:37;;;;;;;6.20;5.53;;;14.80;99.90;15.10;97055.00;;;;5105969;28;20337;-71
2021/08/22 02:35:25;;;;;;;6.70;6.00;;;14.80;99.90;14.90;97060.00;;;;5107074;28;20204;-71
2021/08/22 02:38:14;;;;;;;5.10;4.67;;;14.90;99.90;14.50;97056.00;;;;5106016;28;20699;-72
2021/08/22 02:41:03;;;;;;;8.80;6.53;;;14.80;99.90;14.50;97052.00;;;;5106649;28;20223;-71
2021/08/22 02:43:54;;;;;;;7.13;5.53;;;14.70;99.90;14.30;97059.00;;;;5105873;28;20219;-71
2021/08/22 02:46:43;;;;;;;6.47;5.30;;;14.60;99.90;14.40;97061.00;;;;5105964;28;20569;-71
2021/08/22 02:49:32;;;;;;;7.93;6.10;;;14.60;99.90;14.10;97052.00;;;;5105814;28;20574;-71
2021/08/22 02:52:21;;;;;;;6.07;4.93;;;14.50;99.90;14.20;97046.00;;;;5105028;28;20214;-71
2021/08/22 02:55:11;;;;;;;6.73;5.23;;;14.40;99.90;14.10;97047.00;;;;5106905;28;20194;-71
2021/08/22 02:58:00;;;;;;;6.23;5.47;;;14.40;99.90;14.20;97036.00;;;;5105841;28;20205;-72
2021/08/22 03:00:50;;;;;;;10.30;7.20;;;14.30;99.90;14.20;97035.00;;;;5105373;28;20598;-72
2021/08/22 03:03:39;;;;;;;9.10;5.43;;;14.30;99.90;14.20;97037.00;;;;5105601;28;20226;-71
2021/08/22 03:06:28;;;;;;;8.93;5.80;;;14.10;99.90;14.30;97039.00;;;;5104900;28;20205;-69
2021/08/22 03:09:17;;;;;;;7.27;6.47;;;14.30;99.90;14.30;97033.00;;;;5094684;28;20203;-71
2021/08/22 03:12:07;;;;;;;6.43;5.57;;;14.30;99.90;14.20;97028.00;;;;5086761;28;20253;-72
2021/08/22 03:14:56;;;;;;;6.33;5.17;;;14.30;99.90;14.30;97040.00;;;;5086319;28;20226;-71
2021/08/22 03:17:47;;;;;;;9.83;5.93;;;14.30;99.90;14.20;97041.00;;;;5085652;28;20203;-71
2021/08/22 03:20:36;;;;;;;6.00;5.33;;;14.30;99.90;14.20;97031.00;;;;5085736;28;20199;-72
2021/08/22 03:23:25;;;;;;;5.90;5.30;;;14.30;99.90;14.30;97035.00;;;;5086166;28;20215;-71
2021/08/22 03:26:13;;;;;;;7.93;5.07;;;14.30;99.90;14.40;97033.00;;;;5080548;28;20192;-71
2021/08/22 03:29:02;;;;;;;7.27;5.90;;;14.00;99.90;14.50;97031.00;;;;5084101;28;20191;-71
2021/08/22 03:31:51;;;;;;;6.50;5.33;;;14.40;99.90;14.50;97032.00;;;;5085914;28;20223;-71
2021/08/22 03:34:42;;;;;;;8.27;5.60;;;14.40;99.90;14.40;97022.00;;;;5084726;28;20674;-69
2021/08/22 03:37:31;;;;;;;11.37;5.33;;;14.40;99.90;14.00;97021.00;;;;5083858;28;20601;-71
2021/08/22 03:40:20;;;;;;;6.87;5.10;;;14.30;99.90;14.10;97023.00;;;;5084654;28;20202;-71
2021/08/22 03:43:09;;;;;;;6.30;5.23;;;14.20;99.90;14.10;97018.00;;;;5084286;28;20223;-70
2021/08/22 03:45:58;;;;;;;6.93;6.23;;;14.40;99.90;14.20;97016.00;;;;5085075;28;20206;-71
2021/08/22 03:48:46;;;;;;;6.80;6.10;;;14.20;99.90;14.10;97011.00;;;;5084780;28;20268;-70
2021/08/22 03:51:37;;;;;;;9.83;5.93;;;14.20;99.90;14.10;97025.00;;;;5084685;28;20219;-71
2021/08/22 03:54:26;;;;;;;7.10;6.20;;;14.20;99.90;14.00;97012.00;;;;5085170;28;20195;-70
2021/08/22 03:57:15;;;;;;;7.90;5.97;;;14.20;99.90;14.00;97018.00;;;;5084150;28;20191;-70
2021/08/22 04:00:05;;;;;;;7.50;5.87;;;14.10;99.90;14.00;97013.00;;;;5086314;28;20918;-72
2021/08/22 04:02:54;;;;;;;8.63;5.27;;;14.10;99.90;13.90;97021.00;;;;5084584;28;20219;-72
2021/08/22 04:05:43;;;;;;;7.60;6.60;;;14.10;99.90;13.90;97026.00;;;;5084333;28;20207;-71
2021/08/22 04:08:34;;;;;;;5.80;5.10;;;14.00;99.90;13.70;97032.00;;;;5088124;28;20191;-70
2021/08/22 04:11:23;;;;;;;8.30;6.00;;;14.00;99.90;13.70;97040.00;;;;5104455;28;20249;-70
2021/08/22 04:14:12;;;;;;;8.57;5.67;;;13.90;99.90;13.80;97038.00;;;;5105198;28;20745;-71
2021/08/22 04:17:01;;;;;;;9.17;6.03;;;13.90;99.90;14.10;97041.00;;;;5104417;28;20206;-71
2021/08/22 04:19:50;;;;;;;7.70;5.97;;;13.90;99.90;14.30;97032.00;;;;5105210;28;20829;-71
2021/08/22 04:22:39;;;;;;;6.60;5.83;;;14.00;99.90;14.30;97035.00;;;;5105122;28;20227;-71
2021/08/22 04:25:30;;;;;;;5.90;5.23;;;14.10;99.90;14.20;97034.00;;;;5105201;28;20201;-70
2021/08/22 04:28:18;;;;;;;10.37;6.13;;;14.10;99.90;14.00;97040.00;;;;5104944;28;20201;-71
2021/08/22 04:31:07;;;;;;;5.93;5.27;;;14.10;99.90;14.10;97035.00;;;;5105067;28;20238;-71
2021/08/22 04:33:56;;;;;;;7.47;6.13;;;14.10;99.90;14.10;97036.00;;;;5104885;28;20194;-71
2021/08/22 04:36:45;;;;;;;8.40;5.83;;;14.10;99.90;13.90;97034.00;;;;5101586;28;20590;-70
2021/08/22 04:39:34;;;;;;;7.70;5.80;;;14.10;99.90;13.80;97032.00;;;;5103995;28;20205;-71
2021/08/22 04:42:24;;;;;;;7.07;5.20;;;14.00;99.90;13.90;97025.00;;;;5104540;28;20234;-70
2021/08/22 04:45:13;;;;;;;6.83;5.77;;;14.00;99.90;13.80;97028.00;;;;5104686;28;20217;-71
2021/08/22 04:48:02;;;;;;;9.87;7.57;;;14.00;99.90;13.90;97027.00;;;;5105333;28;20232;-72
2021/08/22 04:50:50;;;;;;;10.20;6.40;;;14.00;99.90;14.10;97037.00;;;;5107526;28;20229;-72
2021/08/22 04:53:39;;;;;;;8.30;6.10;;;14.10;99.90;14.20;97034.00;;;;5108487;28;20199;-70
2021/08/22 04:56:29;;;;;;;6.87;6.17;;;14.20;99.90;14.10;97041.00;;;;5109483;28;20199;-70
2021/08/22 04:59:19;;;;;;;6.77;5.97;;;14.20;99.90;14.00;97033.00;;;;5108442;28;20199;-72
2021/08/22 05:02:08;;;;;;;8.77;6.60;;;14.20;99.90;14.10;97029.00;;;;5108516;28;20218;-70
2021/08/22 05:04:57;;;;;;;10.73;6.60;;;14.10;99.90;14.10;97026.00;;;;5108572;28;20292;-70
2021/08/22 05:07:46;;;;;;;8.77;5.63;;;14.10;99.90;14.10;97030.00;;;;5107438;28;20201;-71
2021/08/22 05:10:37;;;;;;;8.07;6.43;;;14.20;99.90;14.00;97028.00;;;;5067067;28;20204;-71
2021/08/22 05:13:26;;;;;;;8.20;6.80;;;14.20;99.90;14.00;97032.00;;;;5067240;28;20221;-71
2021/08/22 05:16:16;;;;;;;8.13;6.97;;;14.10;99.90;14.20;97034.00;;;;5067763;28;20270;-71
2021/08/22 05:19:05;;;;;;;8.57;6.13;;;14.20;99.90;14.20;97032.00;;;;5067381;28;20204;-71
2021/08/22 05:21:54;;;;;;;6.03;5.53;;;14.20;99.90;14.20;97029.00;;;;5067214;28;20224;-71
2021/08/22 05:24:43;;;;;;;7.67;6.20;;;14.30;99.90;14.30;97019.00;;;;5067386;28;20696;-70
2021/08/22 05:27:32;;;;;;;7.17;6.50;;;14.30;99.90;14.50;97020.00;;;;5066687;28;20203;-70
2021/08/22 05:30:21;;;;;;;10.97;5.80;;;14.40;99.90;14.70;97003.00;;;;5067443;28;20204;-72
2021/08/22 05:33:12;;;;;;;8.60;7.67;;;14.50;99.90;14.90;97017.00;;;;5066739;28;20219;-70
2021/08/22 05:36:18;;;;;;;6.30;5.67;;;14.70;99.90;15.00;97019.00;;;;5067594;28;20207;-70
2021/08/22 05:39:08;;;;;;;7.13;5.73;;;14.80;99.90;15.10;97021.00;;;;5066869;28;20204;-71
2021/08/22 05:41:57;;;;;;;6.33;5.60;;;14.90;99.90;15.20;97015.00;;;;5067597;28;20215;-71
2021/08/22 05:44:46;;;;;;;7.63;5.23;;;15.10;99.90;15.20;97017.00;;;;5067988;28;20212;-71
2021/08/22 05:47:34;;;;;;;7.63;6.27;;;15.10;99.90;15.00;97009.00;;;;5087881;28;20205;-72
2021/08/22 05:50:25;;;;;;;6.60;5.97;;;15.10;99.90;15.30;97000.00;;;;5086120;28;20199;-71
2021/08/22 05:53:14;;;;;;;7.30;5.57;;;15.20;99.90;15.40;97001.00;;;;5087298;28;20199;-70
2021/08/22 05:56:03;;;;;;;6.90;6.13;;;15.30;99.90;15.50;97008.00;;;;5086368;28;20258;-71
2021/08/22 05:58:52;;;;;;;8.93;6.17;;;15.40;99.90;15.70;96998.00;;;;5085877;28;20223;-70
2021/08/22 06:01:41;;;;;;;7.27;5.57;;;15.50;99.90;15.70;96990.00;;;;5087042;28;20215;-72
2021/08/22 06:04:30;;;;;;;7.07;5.63;;;15.60;99.90;16.00;96993.00;;;;5086461;28;20226;-70
2021/08/22 06:07:20;;;;;;;6.00;5.20;;;15.70;99.90;16.30;96990.00;;;;5086919;28;20192;-71
2021/08/22 06:10:11;;;;;;;7.43;6.07;;;15.80;99.90;16.50;96980.00;;;;5104840;28;20202;-69
2021/08/22 06:12:59;;;;;;;8.70;5.90;;;16.00;99.90;16.80;96981.00;;;;5106020;28;20202;-70
2021/08/22 06:15:48;;;;;;;6.43;5.77;;;16.20;99.90;16.90;96979.00;;;;5106955;28;20198;-70
2021/08/22 06:18:37;;;;;;;10.43;6.87;;;16.40;99.90;17.00;96989.00;;;;5106820;28;21085;-72
2021/08/22 06:21:26;;;;;;;10.50;7.60;;;16.50;99.90;17.10;96982.00;;;;5106698;28;20229;-71
2021/08/22 06:24:16;;;;;;;7.93;6.90;;;16.70;99.90;17.30;96988.00;;;;5106522;28;20223;-71
2021/08/22 06:27:06;;;;;;;10.37;7.70;;;16.80;99.90;17.30;96992.00;;;;5106031;28;20210;-71
2021/08/22 06:29:55;;;;;;;8.27;7.13;;;16.90;99.90;17.60;96993.00;;;;5106129;28;20195;-71
2021/08/22 06:32:43;;;;;;;7.93;6.63;;;17.10;99.90;17.90;96988.00;;;;5106188;28;20218;-71
2021/08/22 06:35:32;;;;;;;9.10;6.80;;;17.30;99.90;18.30;96991.00;;;;5098991;28;20222;-69
2021/08/22 06:38:21;;;;;;;10.80;7.93;;;17.60;99.90;18.50;96986.00;;;;5106321;28;20209;-71
2021/08/22 06:41:12;;;;;;;9.73;7.30;;;17.80;99.90;18.80;96989.00;;;;5105598;28;20218;-71
2021/08/22 06:44:01;;;;;;;10.93;7.47;;;18.00;99.90;19.10;96998.00;;;;5106573;28;20211;-70
2021/08/22 06:46:49;;;;;;;8.83;7.23;;;18.20;99.90;19.20;96996.00;;;;5102523;28;20202;-71
2021/08/22 06:49:40;;;;;;;11.77;7.23;;;18.50;99.90;19.60;96989.00;;;;5105852;28;20194;-70
2021/08/22 06:52:28;;;;;;;9.73;6.93;;;18.70;99.90;19.70;96987.00;;;;5106100;28;20218;-71
2021/08/22 06:55:17;;;;;;;8.97;6.47;;;18.90;99.90;20.10;96983.00;;;;5106146;28;20198;-72
2021/08/22 06:58:10;;;;;;;9.53;7.57;;;19.20;99.90;20.00;96988.00;;;;5105384;28;20218;-70
2021/08/22 07:00:59;;;;;;;7.77;6.57;;;19.40;99.90;20.30;96985.00;;;;5106378;28;20215;-69
2021/08/22 07:03:48;;;;;;;12.97;8.07;;;19.60;99.90;20.60;96975.00;;;;5104896;28;20198;-70
2021/08/22 07:06:37;;;;;;;8.67;7.10;;;19.80;99.90;20.80;96977.00;;;;5105905;28;20203;-70
2021/08/22 07:09:25;;;;;;;8.30;6.30;;;20.00;99.90;20.70;96971.00;;;;5093384;28;20751;-69
2021/08/22 07:12:15;;;;;;;9.63;6.83;;;20.10;99.90;20.70;96972.00;;;;5084099;28;20242;-70
2021/08/22 07:15:06;;;;;;;9.07;6.43;;;20.30;99.90;20.90;96978.00;;;;5086296;28;20195;-70
2021/08/22 07:17:55;;;;;;;9.07;6.63;;;20.30;99.90;21.30;96980.00;;;;5085718;28;20203;-70
2021/08/22 07:20:44;;;;;;;10.07;6.87;;;20.50;99.90;21.50;96980.00;;;;5084784;28;20215;-69
2021/08/22 07:23:33;;;;;;;7.30;5.90;;;20.60;99.90;21.90;96981.00;;;;5084908;28;20706;-68
2021/08/22 07:26:22;;;;;;;7.40;5.63;;;20.90;99.90;21.50;96983.00;;;;5085263;28;20330;-69
2021/08/22 07:29:11;;;;;;;9.40;7.10;;;21.00;99.90;21.70;96997.00;;;;5085584;28;20203;-71
2021/08/22 07:32:01;;;;;;;7.50;6.23;;;21.10;99.90;21.40;96988.00;;;;5085721;28;20222;-70
2021/08/22 07:34:50;;;;;;;7.77;6.00;;;21.20;99.90;21.50;96977.00;;;;5085751;28;20204;-69
2021/08/22 07:37:40;;;;;;;7.13;6.00;;;21.20;99.90;21.80;96974.00;;;;5085139;28;20199;-71
2021/08/22 07:40:29;;;;;;;9.27;6.27;;;21.30;99.90;22.10;96982.00;;;;5085003;28;20199;-68
2021/08/22 07:43:18;;;;;;;8.70;6.30;;;21.40;99.90;22.30;96980.00;;;;5084704;28;20207;-70
2021/08/22 07:46:07;;;;;;;8.07;5.33;;;21.60;99.90;22.60;96971.00;;;;5085947;28;20578;-69
2021/08/22 07:48:57;;;;;;;7.73;5.83;;;21.70;99.90;22.80;96975.00;;;;5083241;28;20577;-70
2021/08/22 07:51:46;;;;;;;7.03;5.47;;;22.00;99.90;23.10;96981.00;;;;5083815;28;20226;-70
2021/08/22 07:54:35;;;;;;;5.93;5.33;;;22.20;99.90;23.10;96983.00;;;;5085525;28;20202;-69
2021/08/22 07:57:24;;;;;;;9.20;6.10;;;22.40;99.90;23.50;96975.00;;;;5084575;28;20204;-68
2021/08/22 08:00:15;;;;;;;7.90;6.20;;;22.50;99.90;23.60;96975.00;;;;5084845;28;20206;-68
2021/08/22 08:03:04;;;;;;;9.47;6.83;;;22.80;99.90;23.70;96979.00;;;;5084494;28;20203;-71
2021/08/22 08:05:55;;;;;;;7.00;5.83;;;22.90;99.90;23.90;96982.00;;;;5085252;28;20246;-69
2021/08/22 08:08:43;;;;;;;7.50;6.43;;;23.10;99.90;24.10;96986.00;;;;5090503;28;20198;-69
2021/08/22 08:11:32;;;;;;;7.43;5.23;;;23.30;99.90;24.30;96989.00;;;;5105602;28;20244;-69
2021/08/22 08:14:22;;;;;;;9.13;6.17;;;23.50;99.90;24.50;96976.00;;;;5104787;28;20257;-69
2021/08/22 08:17:11;;;;;;;8.53;6.90;;;23.60;99.90;24.40;96978.00;;;;5105959;28;20206;-69
2021/08/22 08:20:00;;;;;;;5.83;5.27;;;23.70;99.90;24.80;96973.00;;;;5106584;28;20206;-69
2021/08/22 08:22:50;;;;;;;9.03;6.57;;;23.90;99.90;25.00;96978.00;;;;5105573;28;20674;-70
2021/08/22 08:25:39;;;;;;;8.20;5.73;;;24.10;99.90;25.30;96968.00;;;;5106809;28;20227;-69
2021/08/22 08:28:28;;;;;;;6.30;5.70;;;24.30;99.90;25.40;96973.00;;;;5106982;28;20195;-69
2021/08/22 08:31:17;;;;;;;8.67;5.80;;;24.50;99.90;25.50;96967.00;;;;5108870;28;20235;-69
2021/08/22 08:34:08;;;;;;;5.40;4.90;;;24.60;99.90;25.70;96971.00;;;;5108732;28;20201;-71
2021/08/22 08:36:57;;;;;;;5.73;5.23;;;24.80;99.90;25.80;96971.00;;;;5103959;28;20191;-68
2021/08/22 08:39:47;;;;;;;6.43;5.80;;;24.90;99.90;25.50;96967.00;;;;5109060;28;20575;-70
2021/08/22 08:42:36;;;;;;;7.77;5.90;;;24.90;99.90;25.60;96971.00;;;;5108115;28;20895;-69
2021/08/22 08:45:35;;;;;;;6.67;5.40;;;25.00;99.90;26.00;96975.00;;;;5110395;27;20259;-68
2021/08/22 08:48:25;;;;;;;5.83;5.03;;;25.20;99.90;26.20;96970.00;;;;5108625;28;20232;-67
2021/08/22 08:51:40;;;;;;;6.70;5.70;;;25.20;99.90;26.40;96966.00;;;;5107846;28;20228;-68
2021/08/22 08:54:30;;;;;;;6.20;5.30;;;25.40;99.90;26.60;96967.00;;;;5107851;28;20214;-68
2021/08/22 08:57:20;;;;;;;6.60;5.17;;;25.60;99.90;26.90;96969.00;;;;5108257;28;20194;-67
2021/08/22 09:00:13;;;;;;;6.30;5.37;;;25.90;99.90;27.20;96963.00;;;;5108349;28;20210;-69
2021/08/22 09:03:02;;;;;;;5.20;4.57;;;26.10;99.90;27.20;96966.00;;;;5108473;28;20279;-67
2021/08/22 09:07:10;;;;;;;6.70;6.00;;;26.30;99.90;27.40;96971.00;;;;5106853;28;20220;-68
2021/08/22 09:10:51;;;;;;;8.87;6.03;;;26.50;99.90;27.60;96959.00;;;;5091997;28;20204;-67
2021/08/22 09:14:43;;;;;;;8.33;5.17;;;26.70;99.90;27.40;96968.00;;;;5077605;28;20213;-68
2021/08/22 09:18:28;;;;;;;5.43;4.93;;;26.90;99.90;27.80;96955.00;;;;5077148;28;20240;-69
2021/08/22 09:22:10;;;;;;;5.93;4.87;;;26.90;99.90;28.30;96960.00;;;;5086601;28;20222;-68
2021/08/22 09:25:53;;;;;;;7.30;5.40;;;27.20;99.90;27.90;96957.00;;;;5082580;28;20206;-67
2021/08/22 09:29:34;;;;;;;7.30;4.73;;;27.40;99.90;29.00;96952.00;;;;5084757;28;20209;-70
2021/08/22 09:33:19;;;;;;;5.27;4.77;;;27.70;99.90;29.10;96938.00;;;;5088168;28;20235;-68
2021/08/22 09:37:22;;;;;;;5.33;4.83;;;27.90;99.90;29.70;96950.00;;;;5087256;28;20218;-70
2021/08/22 09:41:18;;;;;;;5.00;4.37;;;28.30;99.90;29.40;96954.00;;;;5020434;28;20213;-71
2021/08/22 09:44:59;;;;;;;5.20;4.70;;;28.60;96.50;28.90;96968.00;;;;5086350;28;20207;-69
2021/08/22 09:48:59;;;;;;;6.43;4.53;;;28.50;94.10;28.90;96965.00;;;;5086299;28;20222;-69
2021/08/22 09:52:57;;;;;;;5.07;4.57;;;28.40;95.10;28.30;96966.00;;;;5086098;28;20210;-68
2021/08/22 09:57:06;;;;;;;6.17;4.93;;;28.10;96.20;28.10;96956.00;;;;5078932;28;20203;-68
2021/08/22 10:00:41;;;;;;;7.87;4.63;;;27.90;94.80;28.20;96946.00;;;;5091126;28;20215;-69
2021/08/22 10:04:29;;;;;;;8.47;4.73;;;27.70;95.50;29.20;96933.00;;;;5079995;28;20202;-69
2021/08/22 10:07:50;;;;;;;6.27;4.70;;;27.90;96.40;29.70;96931.00;;;;5087350;28;20219;-68
2021/08/22 10:10:41;;;;;;;5.03;4.23;;;28.30;95.20;29.80;96939.00;;;;5082349;28;20587;-67
2021/08/22 10:13:30;;;;;;;4.70;4.03;;;28.60;93.60;30.20;96939.00;;;;5107509;28;20570;-68
2021/08/22 10:16:22;;;;;;;8.00;4.80;;;28.90;92.80;30.50;96932.00;;;;5107096;28;20200;-68
2021/08/22 10:19:11;;;;;;;8.23;4.70;;;29.20;92.10;30.40;96932.00;;;;5106773;28;20209;-68
2021/08/22 10:22:33;;;;;;;5.15;4.07;;;29.30;90.50;30.80;96936.00;;;;5107364;28;20596;-68
2021/08/22 10:25:49;;;;;;;6.43;5.22;;;29.50;90.60;30.90;96925.00;;;;5107735;28;20249;-68
2021/08/22 10:29:03;;;;;;;6.13;4.45;;;29.70;90.00;30.90;96917.00;;;;5107956;28;20201;-68
2021/08/22 10:32:14;;;;;;;4.80;4.25;;;29.80;88.00;31.30;96918.00;;;;5106998;28;20217;-68
2021/08/22 10:35:27;;;;;;;5.95;4.20;;;30.00;89.70;31.00;96915.00;;;;5107630;28;20210;-68
2021/08/22 10:38:28;;;;;;;5.22;4.30;;;30.00;86.60;31.30;96919.00;;;;5090786;28;20209;-68
2021/08/22 10:41:35;;;;;;;5.95;4.70;;;30.20;84.60;31.60;96920.00;;;;5107792;28;20599;-69
2021/08/22 10:44:41;;;;;;;6.50;5.20;;;30.40;83.70;31.80;96915.00;;;;5105759;28;20217;-68
2021/08/22 10:47:43;;;;;;;5.35;4.85;;;30.60;84.30;31.80;96910.00;;;;5087053;28;20244;-68
2021/08/22 10:51:10;;;;;;;7.38;4.93;;;30.70;81.60;32.30;96906.00;;;;5086703;28;20204;-69
2021/08/22 10:54:21;;;;;;;7.38;5.05;;;30.90;82.80;30.70;96886.00;;;;5086709;28;20708;-68
2021/08/22 10:57:49;;;;;;;6.72;4.85;;;30.90;75.70;31.50;96883.00;;;;5086616;28;20198;-69
2021/08/22 11:00:39;;;;;;;7.13;4.68;;;30.80;75.40;29.20;96918.00;;;;5086254;28;20199;-70
2021/08/22 11:03:31;;;;;;;6.60;4.88;;;30.30;75.90;30.40;96909.00;;;;5079455;28;20207;-70
2021/08/22 11:06:20;;;;;;;6.95;5.25;;;30.10;76.60;30.30;96859.00;;;;5088420;28;20695;-70
2021/08/22 11:09:12;;;;;;;5.03;4.43;;;30.00;79.70;29.80;96897.00;;;;5095953;28;20321;-68
2021/08/22 11:12:02;;;;;;;5.47;4.78;;;30.00;77.90;28.90;96910.00;;;;5107275;28;20230;-70
2021/08/22 11:14:51;;;;;;;10.07;5.63;;;29.80;79.60;28.80;96910.00;;;;5106894;28;20208;-70
2021/08/22 11:17:49;;;;;;;6.03;5.30;;;29.50;78.70;28.30;96907.00;;;;5107075;28;20693;-70
2021/08/22 11:20:40;;;;;;;5.55;5.03;;;29.00;79.50;29.30;96918.00;;;;5104737;28;20198;-69
2021/08/22 11:23:29;;;;;;;6.75;5.22;;;28.80;80.30;28.90;96909.00;;;;5082498;28;20201;-68
2021/08/22 11:26:22;;;;;;;6.70;4.72;;;28.80;81.70;28.70;96873.00;;;;5085187;28;20222;-70
2021/08/22 11:29:10;;;;;;;7.60;5.55;;;28.80;82.10;29.80;96901.00;;;;5093770;28;20197;-70
2021/08/22 11:32:04;;;;;;;6.65;5.45;;;28.90;83.50;30.00;96906.00;;;;5062894;28;20282;-69
2021/08/22 11:34:53;;;;;;;7.40;5.00;;;29.10;85.10;29.90;96906.00;;;;5065833;28;20203;-70
2021/08/22 11:37:45;;;;;;;7.55;4.90;;;29.20;82.90;29.20;96907.00;;;;5065239;28;20199;-70
2021/08/22 11:40:35;;;;;;;4.65;4.25;;;29.20;81.70;29.10;96908.00;;;;5065646;28;20199;-70
2021/08/22 11:43:26;;;;;;;5.57;5.07;;;28.90;81.50;28.80;96921.00;;;;5066658;28;20213;-68
2021/08/22 11:46:17;;;;;;;5.07;4.38;;;28.80;83.00;28.20;96913.00;;;;5080208;28;20240;-68
2021/08/22 11:49:06;;;;;;;5.70;5.00;;;28.50;81.20;28.00;96908.00;;;;5085560;28;20219;-69
2021/08/22 11:51:56;;;;;;;8.00;4.63;;;28.10;82.10;28.30;96899.00;;;;5085132;28;20228;-70
2021/08/22 11:54:46;;;;;;;6.07;4.30;;;28.00;84.00;28.30;96912.00;;;;5085505;28;20230;-70
2021/08/22 11:57:36;;;;;;;5.50;5.00;;;27.80;86.20;28.30;96903.00;;;;5086766;28;20227;-70
2021/08/22 12:00:25;;;;;;;5.93;4.67;;;27.80;87.00;28.40;96909.00;;;;5089192;28;20696;-70
2021/08/22 12:03:16;;;;;;;6.50;4.70;;;27.80;86.00;28.20;96890.00;;;;5088370;28;20199;-69
2021/08/22 12:06:07;;;;;;;5.63;4.00;;;27.90;86.10;28.30;96881.00;;;;5090011;28;20263;-69
2021/08/22 12:08:56;;;;;;;5.90;4.60;;;27.90;86.80;29.00;96874.00;;;;5095418;28;20576;-70
2021/08/22 12:11:46;;;;;;;4.40;4.00;;;28.00;87.90;29.70;96880.00;;;;5109694;28;20238;-68
2021/08/22 12:14:35;;;;;;;5.43;4.40;;;28.40;88.80;30.30;96856.00;;;;5102892;28;20722;-71
2021/08/22 12:17:25;;;;;;;4.47;3.95;;;28.80;90.20;31.10;96834.00;;;;5109691;28;20283;-70
2021/08/22 12:20:23;;;;;;;5.28;3.95;;;29.30;86.70;32.70;96838.00;;;;5110083;28;20905;-70
2021/08/22 12:23:13;;;;;;;4.32;3.92;;;30.10;87.80;33.70;96831.00;;;;5108638;28;20202;-71
2021/08/22 12:26:21;;;;;;;3.67;3.35;;;30.90;85.70;34.30;96841.00;;;;5108411;28;20216;-71
2021/08/22 12:29:12;;;;;;;4.72;3.92;;;31.80;80.90;34.80;96859.00;;;;5104294;28;20203;-71
2021/08/22 12:32:09;;;;;;;5.88;4.93;;;32.50;78.40;33.90;96845.00;;;;5085538;28;20720;-70
2021/08/22 12:35:03;;;;;;;5.18;4.68;;;33.00;71.50;33.30;96870.00;;;;5068269;28;20575;-71
2021/08/22 12:37:52;;;;;;;4.85;4.05;;;33.00;69.40;32.30;96875.00;;;;5099473;28;20202;-71
2021/08/22 12:40:41;;;;;;;5.20;4.30;;;32.50;69.50;31.80;96871.00;;;;5097326;28;20210;-70
2021/08/22 12:43:30;;;;;;;5.47;4.75;;;32.10;69.00;30.50;96868.00;;;;5088795;28;20198;-71
2021/08/22 12:46:23;;;;;;;6.55;5.38;;;31.60;67.90;29.90;96870.00;;;;5093611;28;20199;-71
2021/08/22 12:49:12;;;;;;;4.57;4.18;;;30.90;67.10;29.50;96865.00;;;;5074599;28;20728;-70
2021/08/22 12:52:05;;;;;;;7.28;4.90;;;30.40;68.50;29.90;96856.00;;;;5087921;28;20217;-70
2021/08/22 12:54:54;;;;;;;4.93;4.43;;;29.90;70.20;29.60;96857.00;;;;5087024;28;20194;-70
2021/08/22 12:57:43;;;;;;;6.22;4.38;;;29.70;72.60;29.60;96851.00;;;;5086709;28;20452;-71